sensor_id;sensor_type;location;lat;lon;timestamp;temperature;humidity
27633;DHT22;15046;50.930;13.334;2023-04-24T00:00:02;12.90;99.90
27633;DHT22;15046;50.930;13.334;2023-04-24T00:02:31;12.80;99.90
27633;DHT22;15046;50.930;13.334;2023-04-24T00:04:58;12.80;99.90
27633;DHT22;15046;50.930;13.334;2023-04-24T00:07:28;12.80;99.90
27633;DHT22;15046;50.930;13.334;2023-04-24T00:09:54;12.80;99.90
27633;DHT22;15046;50.930;13.334;2023-04-24T00:12:20;12.80;99.90
27633;DHT22;15046;50.930;13.334;2023-04-24T00:14:46;12.80;99.90
27633;DHT22;15046;50.930;13.334;2023-04-24T00:17:12;12.80;99.90
27633;DHT22;15046;50.930;13.334;2023-04-24T00:19:38;12.80;99.90
27633;DHT22;15046;50.930;13.334;2023-04-24T00:22:04;12.80;99.90
27633;DHT22;15046;50.930;13.334;2023-04-24T00:24:31;12.80;99.90
27633;DHT22;15046;50.930;13.334;2023-04-24T00:26:57;12.70;99.90
27633;DHT22;15046;50.930;13.334;2023-04-24T00:29:22;12.70;99.90
27633;DHT22;15046;50.930;13.334;2023-04-24T00:31:48;12.70;99.90
27633;DHT22;15046;50.930;13.334;2023-04-24T00:34:14;12.60;99.90
27633;DHT22;15046;50.930;13.334;2023-04-24T00:36:40;12.60;99.90
27633;DHT22;15046;50.930;13.334;2023-04-24T00:39:06;12.60;99.90
27633;DHT22;15046;50.930;13.334;2023-04-24T00:41:34;12.50;99.90
27633;DHT22;15046;50.930;13.334;2023-04-24T00:44:00;12.50;99.90
27633;DHT22;15046;50.930;13.334;2023-04-24T00:46:26;12.40;99.90
27633;DHT22;15046;50.930;13.334;2023-04-24T00:48:52;12.50;99.90
27633;DHT22;15046;50.930;13.334;2023-04-24T00:51:18;12.40;99.90
27633;DHT22;15046;50.930;13.334;2023-04-24T00:53:44;12.40;99.90
27633;DHT22;15046;50.930;13.334;2023-04-24T00:56:10;12.40;99.90
27633;DHT22;15046;50.930;13.334;2023-04-24T00:58:36;12.40;99.90
27633;DHT22;15046;50.930;13.334;2023-04-24T01:01:02;12.40;99.90
27633;DHT22;15046;50.930;13.334;2023-04-24T01:03:33;12.40;99.90
27633;DHT22;15046;50.930;13.334;2023-04-24T01:05:59;12.30;99.90
27633;DHT22;15046;50.930;13.334;2023-04-24T01:08:26;12.30;99.90
27633;DHT22;15046;50.930;13.334;2023-04-24T01:10:54;12.30;99.90
27633;DHT22;15046;50.930;13.334;2023-04-24T01:13:20;12.30;99.90
27633;DHT22;15046;50.930;13.334;2023-04-24T01:15:47;12.30;99.90
27633;DHT22;15046;50.930;13.334;2023-04-24T01:18:13;12.30;99.90
27633;DHT22;15046;50.930;13.334;2023-04-24T01:20:43;12.30;99.90
27633;DHT22;15046;50.930;13.334;2023-04-24T01:23:10;12.20;99.90
27633;DHT22;15046;50.930;13.334;2023-04-24T01:25:36;12.20;99.90
27633;DHT22;15046;50.930;13.334;2023-04-24T01:28:03;12.30;99.90
27633;DHT22;15046;50.930;13.334;2023-04-24T01:30:29;12.20;99.90
27633;DHT22;15046;50.930;13.334;2023-04-24T01:33:17;12.20;99.90
27633;DHT22;15046;50.930;13.334;2023-04-24T01:35:43;12.20;99.90
27633;DHT22;15046;50.930;13.334;2023-04-24T01:38:09;12.20;99.90
27633;DHT22;15046;50.930;13.334;2023-04-24T01:40:35;12.20;99.90
27633;DHT22;15046;50.930;13.334;2023-04-24T01:43:01;12.10;99.90
27633;DHT22;15046;50.930;13.334;2023-04-24T01:45:27;12.10;99.90
27633;DHT22;15046;50.930;13.334;2023-04-24T01:47:53;12.10;99.90
27633;DHT22;15046;50.930;13.334;2023-04-24T01:50:19;12.10;99.90
27633;DHT22;15046;50.930;13.334;2023-04-24T01:52:44;12.10;99.90
27633;DHT22;15046;50.930;13.334;2023-04-24T01:55:10;12.10;99.90
27633;DHT22;15046;50.930;13.334;2023-04-24T01:57:36;12.10;99.90
27633;DHT22;15046;50.930;13.334;2023-04-24T02:00:04;12.10;99.90
27633;DHT22;15046;50.930;13.334;2023-04-24T02:02:31;12.00;99.90
27633;DHT22;15046;50.930;13.334;2023-04-24T02:04:57;12.00;99.90
27633;DHT22;15046;50.930;13.334;2023-04-24T02:07:23;12.00;99.90
27633;DHT22;15046;50.930;13.334;2023-04-24T02:09:48;12.10;99.90
27633;DHT22;15046;50.930;13.334;2023-04-24T02:12:15;12.00;99.90
27633;DHT22;15046;50.930;13.334;2023-04-24T02:14:41;12.00;99.90
27633;DHT22;15046;50.930;13.334;2023-04-24T02:17:08;12.00;99.90
27633;DHT22;15046;50.930;13.334;2023-04-24T02:19:33;12.00;99.90
27633;DHT22;15046;50.930;13.334;2023-04-24T02:21:59;12.00;99.90
27633;DHT22;15046;50.930;13.334;2023-04-24T02:24:25;12.00;99.90
27633;DHT22;15046;50.930;13.334;2023-04-24T02:26:51;12.00;99.90
27633;DHT22;15046;50.930;13.334;2023-04-24T02:29:16;12.00;99.90
27633;DHT22;15046;50.930;13.334;2023-04-24T02:31:43;12.00;99.90
27633;DHT22;15046;50.930;13.334;2023-04-24T02:34:09;11.90;99.90
27633;DHT22;15046;50.930;13.334;2023-04-24T02:36:35;11.90;99.90
27633;DHT22;15046;50.930;13.334;2023-04-24T02:39:00;12.00;99.90
27633;DHT22;15046;50.930;13.334;2023-04-24T02:41:26;11.90;99.90
27633;DHT22;15046;50.930;13.334;2023-04-24T02:43:58;11.90;99.90
27633;DHT22;15046;50.930;13.334;2023-04-24T02:46:25;11.90;99.90
27633;DHT22;15046;50.930;13.334;2023-04-24T02:48:51;11.90;99.90
27633;DHT22;15046;50.930;13.334;2023-04-24T02:51:16;11.90;99.90
27633;DHT22;15046;50.930;13.334;2023-04-24T02:53:42;12.00;99.90
27633;DHT22;15046;50.930;13.334;2023-04-24T02:56:08;11.90;99.90
27633;DHT22;15046;50.930;13.334;2023-04-24T02:58:34;11.90;99.90
27633;DHT22;15046;50.930;13.334;2023-04-24T03:01:00;11.90;99.90
27633;DHT22;15046;50.930;13.334;2023-04-24T03:03:26;11.90;99.90
27633;DHT22;15046;50.930;13.334;2023-04-24T03:05:52;11.90;99.90
27633;DHT22;15046;50.930;13.334;2023-04-24T03:08:18;11.80;99.90
27633;DHT22;15046;50.930;13.334;2023-04-24T03:10:44;11.80;99.90
27633;DHT22;15046;50.930;13.334;2023-04-24T03:13:09;11.80;99.90
27633;DHT22;15046;50.930;13.334;2023-04-24T03:15:35;11.80;99.90
27633;DHT22;15046;50.930;13.334;2023-04-24T03:18:01;11.80;99.90
27633;DHT22;15046;50.930;13.334;2023-04-24T03:20:28;11.70;99.90
27633;DHT22;15046;50.930;13.334;2023-04-24T03:22:54;11.70;99.90
27633;DHT22;15046;50.930;13.334;2023-04-24T03:25:20;11.70;99.90
27633;DHT22;15046;50.930;13.334;2023-04-24T03:27:45;11.70;99.90
27633;DHT22;15046;50.930;13.334;2023-04-24T03:30:11;11.60;99.90
27633;DHT22;15046;50.930;13.334;2023-04-24T03:32:37;11.60;99.90
27633;DHT22;15046;50.930;13.334;2023-04-24T03:35:08;11.50;99.90
27633;DHT22;15046;50.930;13.334;2023-04-24T03:37:34;11.50;99.90
27633;DHT22;15046;50.930;13.334;2023-04-24T03:40:00;11.50;99.90
27633;DHT22;15046;50.930;13.334;2023-04-24T03:42:26;11.40;99.90
27633;DHT22;15046;50.930;13.334;2023-04-24T03:44:52;11.40;99.90
27633;DHT22;15046;50.930;13.334;2023-04-24T03:47:17;11.40;99.90
27633;DHT22;15046;50.930;13.334;2023-04-24T03:49:43;11.30;99.90
27633;DHT22;15046;50.930;13.334;2023-04-24T03:52:09;11.30;99.90
27633;DHT22;15046;50.930;13.334;2023-04-24T03:54:35;11.30;99.90
27633;DHT22;15046;50.930;13.334;2023-04-24T03:57:00;11.30;99.90
27633;DHT22;15046;50.930;13.334;2023-04-24T03:59:27;11.30;99.90
27633;DHT22;15046;50.930;13.334;2023-04-24T04:01:52;11.20;99.90
27633;DHT22;15046;50.930;13.334;2023-04-24T04:04:18;11.20;99.90
27633;DHT22;15046;50.930;13.334;2023-04-24T04:06:44;11.20;99.90
27633;DHT22;15046;50.930;13.334;2023-04-24T04:09:10;11.20;99.90
27633;DHT22;15046;50.930;13.334;2023-04-24T04:11:36;11.20;99.90
27633;DHT22;15046;50.930;13.334;2023-04-24T04:14:02;11.20;99.90
27633;DHT22;15046;50.930;13.334;2023-04-24T04:16:28;11.20;99.90
27633;DHT22;15046;50.930;13.334;2023-04-24T04:18:53;11.20;99.90
27633;DHT22;15046;50.930;13.334;2023-04-24T04:21:19;11.20;99.90
27633;DHT22;15046;50.930;13.334;2023-04-24T04:23:45;11.20;99.90
27633;DHT22;15046;50.930;13.334;2023-04-24T04:26:11;11.30;99.90
27633;DHT22;15046;50.930;13.334;2023-04-24T04:28:38;11.20;99.90
27633;DHT22;15046;50.930;13.334;2023-04-24T04:31:05;11.30;99.90
27633;DHT22;15046;50.930;13.334;2023-04-24T04:33:30;11.30;99.90
27633;DHT22;15046;50.930;13.334;2023-04-24T04:35:57;11.30;99.90
27633;DHT22;15046;50.930;13.334;2023-04-24T04:38:23;11.30;99.90
27633;DHT22;15046;50.930;13.334;2023-04-24T04:40:49;11.40;99.90
27633;DHT22;15046;50.930;13.334;2023-04-24T04:43:15;11.40;99.90
27633;DHT22;15046;50.930;13.334;2023-04-24T04:45:41;11.40;99.90
27633;DHT22;15046;50.930;13.334;2023-04-24T04:48:09;11.40;99.90
27633;DHT22;15046;50.930;13.334;2023-04-24T04:50:38;11.50;99.90
27633;DHT22;15046;50.930;13.334;2023-04-24T04:53:04;11.50;99.90
27633;DHT22;15046;50.930;13.334;2023-04-24T04:55:30;11.50;99.90
27633;DHT22;15046;50.930;13.334;2023-04-24T04:57:56;11.50;99.90
27633;DHT22;15046;50.930;13.334;2023-04-24T05:00:22;11.60;99.90
27633;DHT22;15046;50.930;13.334;2023-04-24T05:02:51;11.60;99.90
27633;DHT22;15046;50.930;13.334;2023-04-24T05:05:17;11.70;99.90
27633;DHT22;15046;50.930;13.334;2023-04-24T05:07:43;11.70;99.90
27633;DHT22;15046;50.930;13.334;2023-04-24T05:10:10;11.70;99.90
27633;DHT22;15046;50.930;13.334;2023-04-24T05:12:36;11.70;99.90
27633;DHT22;15046;50.930;13.334;2023-04-24T05:15:02;11.70;99.90
27633;DHT22;15046;50.930;13.334;2023-04-24T05:17:28;11.80;99.90
27633;DHT22;15046;50.930;13.334;2023-04-24T05:19:54;11.80;99.90
27633;DHT22;15046;50.930;13.334;2023-04-24T05:22:20;11.80;99.90
27633;DHT22;15046;50.930;13.334;2023-04-24T05:24:47;11.80;99.90
27633;DHT22;15046;50.930;13.334;2023-04-24T05:27:13;11.90;99.90
27633;DHT22;15046;50.930;13.334;2023-04-24T05:29:39;11.80;99.90
27633;DHT22;15046;50.930;13.334;2023-04-24T05:32:06;11.80;99.90
27633;DHT22;15046;50.930;13.334;2023-04-24T05:34:32;11.80;99.90
27633;DHT22;15046;50.930;13.334;2023-04-24T05:36:58;11.80;99.90
27633;DHT22;15046;50.930;13.334;2023-04-24T05:39:24;11.90;99.90
27633;DHT22;15046;50.930;13.334;2023-04-24T05:41:52;11.90;99.90
27633;DHT22;15046;50.930;13.334;2023-04-24T05:44:18;11.90;99.90
27633;DHT22;15046;50.930;13.334;2023-04-24T05:46:44;12.00;99.90
27633;DHT22;15046;50.930;13.334;2023-04-24T05:49:10;12.00;99.90
27633;DHT22;15046;50.930;13.334;2023-04-24T05:51:36;12.00;99.90
27633;DHT22;15046;50.930;13.334;2023-04-24T05:54:02;12.10;99.90
27633;DHT22;15046;50.930;13.334;2023-04-24T05:56:28;12.10;99.90
27633;DHT22;15046;50.930;13.334;2023-04-24T05:58:54;12.20;99.90
27633;DHT22;15046;50.930;13.334;2023-04-24T06:01:21;12.30;99.90
27633;DHT22;15046;50.930;13.334;2023-04-24T06:03:46;12.30;99.90
27633;DHT22;15046;50.930;13.334;2023-04-24T06:06:12;12.40;99.90
27633;DHT22;15046;50.930;13.334;2023-04-24T06:08:38;12.50;99.90
27633;DHT22;15046;50.930;13.334;2023-04-24T06:11:04;12.60;99.90
27633;DHT22;15046;50.930;13.334;2023-04-24T06:13:30;12.60;99.90
27633;DHT22;15046;50.930;13.334;2023-04-24T06:15:56;12.80;99.90
27633;DHT22;15046;50.930;13.334;2023-04-24T06:18:21;12.90;99.90
27633;DHT22;15046;50.930;13.334;2023-04-24T06:20:47;12.90;99.90
27633;DHT22;15046;50.930;13.334;2023-04-24T06:23:13;13.00;99.90
27633;DHT22;15046;50.930;13.334;2023-04-24T06:25:39;13.00;99.90
27633;DHT22;15046;50.930;13.334;2023-04-24T06:28:05;13.00;99.90
27633;DHT22;15046;50.930;13.334;2023-04-24T06:30:31;13.10;99.90
27633;DHT22;15046;50.930;13.334;2023-04-24T06:32:57;13.10;99.90
27633;DHT22;15046;50.930;13.334;2023-04-24T06:35:23;13.10;99.90
27633;DHT22;15046;50.930;13.334;2023-04-24T06:37:49;13.10;99.90
27633;DHT22;15046;50.930;13.334;2023-04-24T06:40:15;13.20;99.90
27633;DHT22;15046;50.930;13.334;2023-04-24T06:42:40;13.30;99.90
27633;DHT22;15046;50.930;13.334;2023-04-24T06:45:06;13.30;99.90
27633;DHT22;15046;50.930;13.334;2023-04-24T06:47:32;13.30;99.90
27633;DHT22;15046;50.930;13.334;2023-04-24T06:49:58;13.30;99.90
27633;DHT22;15046;50.930;13.334;2023-04-24T06:52:25;13.30;99.90
27633;DHT22;15046;50.930;13.334;2023-04-24T06:54:50;13.40;99.90
27633;DHT22;15046;50.930;13.334;2023-04-24T06:57:17;13.40;99.90
27633;DHT22;15046;50.930;13.334;2023-04-24T06:59:43;13.50;99.90
27633;DHT22;15046;50.930;13.334;2023-04-24T07:02:08;13.50;99.90
27633;DHT22;15046;50.930;13.334;2023-04-24T07:04:34;13.60;99.90
27633;DHT22;15046;50.930;13.334;2023-04-24T07:07:00;13.70;99.90
27633;DHT22;15046;50.930;13.334;2023-04-24T07:09:26;13.70;99.90
27633;DHT22;15046;50.930;13.334;2023-04-24T07:11:53;13.80;99.90
27633;DHT22;15046;50.930;13.334;2023-04-24T07:14:19;13.80;99.90
27633;DHT22;15046;50.930;13.334;2023-04-24T07:16:46;13.90;99.90
27633;DHT22;15046;50.930;13.334;2023-04-24T07:19:13;13.90;99.90
27633;DHT22;15046;50.930;13.334;2023-04-24T07:21:39;13.90;99.90
27633;DHT22;15046;50.930;13.334;2023-04-24T07:24:05;13.90;99.90
27633;DHT22;15046;50.930;13.334;2023-04-24T07:26:34;14.00;99.90
27633;DHT22;15046;50.930;13.334;2023-04-24T07:29:01;14.00;99.90
27633;DHT22;15046;50.930;13.334;2023-04-24T07:31:26;13.90;99.90
27633;DHT22;15046;50.930;13.334;2023-04-24T07:33:52;13.90;99.90
27633;DHT22;15046;50.930;13.334;2023-04-24T07:36:18;13.90;99.90
27633;DHT22;15046;50.930;13.334;2023-04-24T07:38:45;14.00;99.90
27633;DHT22;15046;50.930;13.334;2023-04-24T07:41:12;14.00;99.90
27633;DHT22;15046;50.930;13.334;2023-04-24T07:43:38;14.00;99.90
27633;DHT22;15046;50.930;13.334;2023-04-24T07:46:04;14.10;99.90
27633;DHT22;15046;50.930;13.334;2023-04-24T07:48:30;14.20;99.90
27633;DHT22;15046;50.930;13.334;2023-04-24T07:50:55;14.20;99.90
27633;DHT22;15046;50.930;13.334;2023-04-24T07:53:21;14.30;99.90
27633;DHT22;15046;50.930;13.334;2023-04-24T07:55:47;14.30;99.90
27633;DHT22;15046;50.930;13.334;2023-04-24T07:58:13;14.20;99.90
27633;DHT22;15046;50.930;13.334;2023-04-24T08:00:39;14.10;99.90
27633;DHT22;15046;50.930;13.334;2023-04-24T08:03:05;14.00;99.90
27633;DHT22;15046;50.930;13.334;2023-04-24T08:05:31;13.80;99.90
27633;DHT22;15046;50.930;13.334;2023-04-24T08:07:56;13.80;99.90
27633;DHT22;15046;50.930;13.334;2023-04-24T08:10:23;13.80;99.90
27633;DHT22;15046;50.930;13.334;2023-04-24T08:12:49;13.80;99.90
27633;DHT22;15046;50.930;13.334;2023-04-24T08:15:15;13.80;99.90
27633;DHT22;15046;50.930;13.334;2023-04-24T08:17:41;13.90;99.90
27633;DHT22;15046;50.930;13.334;2023-04-24T08:20:09;13.90;99.90
27633;DHT22;15046;50.930;13.334;2023-04-24T08:22:42;14.00;99.90
27633;DHT22;15046;50.930;13.334;2023-04-24T08:25:09;14.10;99.90
27633;DHT22;15046;50.930;13.334;2023-04-24T08:27:35;14.30;99.90
27633;DHT22;15046;50.930;13.334;2023-04-24T08:30:05;14.50;99.90
27633;DHT22;15046;50.930;13.334;2023-04-24T08:32:31;14.60;99.90
27633;DHT22;15046;50.930;13.334;2023-04-24T08:34:58;14.70;99.90
27633;DHT22;15046;50.930;13.334;2023-04-24T08:37:26;14.80;99.90
27633;DHT22;15046;50.930;13.334;2023-04-24T08:39:52;14.90;99.90
27633;DHT22;15046;50.930;13.334;2023-04-24T08:42:19;14.90;99.90
27633;DHT22;15046;50.930;13.334;2023-04-24T08:44:47;15.00;99.90
27633;DHT22;15046;50.930;13.334;2023-04-24T08:47:15;15.10;99.90
27633;DHT22;15046;50.930;13.334;2023-04-24T08:49:41;15.20;99.90
27633;DHT22;15046;50.930;13.334;2023-04-24T08:52:08;15.20;99.90
27633;DHT22;15046;50.930;13.334;2023-04-24T08:54:35;15.00;99.90
27633;DHT22;15046;50.930;13.334;2023-04-24T08:57:02;15.00;99.90
27633;DHT22;15046;50.930;13.334;2023-04-24T08:59:32;15.00;99.90
27633;DHT22;15046;50.930;13.334;2023-04-24T09:01:59;14.90;99.90
27633;DHT22;15046;50.930;13.334;2023-04-24T09:04:25;14.90;99.90
27633;DHT22;15046;50.930;13.334;2023-04-24T09:06:57;14.90;99.90
27633;DHT22;15046;50.930;13.334;2023-04-24T09:09:24;14.90;99.90
27633;DHT22;15046;50.930;13.334;2023-04-24T09:11:51;14.90;99.90
27633;DHT22;15046;50.930;13.334;2023-04-24T09:14:19;14.90;99.90
27633;DHT22;15046;50.930;13.334;2023-04-24T09:16:46;15.00;99.90
27633;DHT22;15046;50.930;13.334;2023-04-24T09:19:12;15.00;99.90
27633;DHT22;15046;50.930;13.334;2023-04-24T09:21:38;15.10;99.90
27633;DHT22;15046;50.930;13.334;2023-04-24T09:24:09;15.20;99.90
27633;DHT22;15046;50.930;13.334;2023-04-24T09:26:40;15.40;99.70
27633;DHT22;15046;50.930;13.334;2023-04-24T09:29:06;15.40;99.20
27633;DHT22;15046;50.930;13.334;2023-04-24T09:31:31;15.40;98.90
27633;DHT22;15046;50.930;13.334;2023-04-24T09:36:29;15.60;99.00
27633;DHT22;15046;50.930;13.334;2023-04-24T09:39:01;15.90;98.80
27633;DHT22;15046;50.930;13.334;2023-04-24T09:41:28;16.00;98.20
27633;DHT22;15046;50.930;13.334;2023-04-24T09:43:57;16.20;97.70
27633;DHT22;15046;50.930;13.334;2023-04-24T09:46:30;16.30;97.10
27633;DHT22;15046;50.930;13.334;2023-04-24T09:49:12;16.40;96.60
27633;DHT22;15046;50.930;13.334;2023-04-24T09:51:38;16.30;96.30
27633;DHT22;15046;50.930;13.334;2023-04-24T09:54:15;16.20;96.10
27633;DHT22;15046;50.930;13.334;2023-04-24T09:56:49;16.00;96.10
27633;DHT22;15046;50.930;13.334;2023-04-24T09:59:18;15.80;96.30
27633;DHT22;15046;50.930;13.334;2023-04-24T10:01:44;15.70;96.30
27633;DHT22;15046;50.930;13.334;2023-04-24T10:04:20;15.60;96.20
27633;DHT22;15046;50.930;13.334;2023-04-24T10:06:48;15.50;95.90
27633;DHT22;15046;50.930;13.334;2023-04-24T10:09:15;15.30;95.90
27633;DHT22;15046;50.930;13.334;2023-04-24T10:11:47;15.30;95.90
27633;DHT22;15046;50.930;13.334;2023-04-24T10:14:15;15.30;95.90
27633;DHT22;15046;50.930;13.334;2023-04-24T10:16:42;15.20;96.00
27633;DHT22;15046;50.930;13.334;2023-04-24T10:19:08;15.20;95.90
27633;DHT22;15046;50.930;13.334;2023-04-24T10:21:34;15.20;95.90
27633;DHT22;15046;50.930;13.334;2023-04-24T10:24:00;15.10;95.80
27633;DHT22;15046;50.930;13.334;2023-04-24T10:26:30;15.00;95.80
27633;DHT22;15046;50.930;13.334;2023-04-24T10:28:58;15.00;96.00
27633;DHT22;15046;50.930;13.334;2023-04-24T10:31:24;15.00;96.10
27633;DHT22;15046;50.930;13.334;2023-04-24T10:33:51;15.00;96.30
27633;DHT22;15046;50.930;13.334;2023-04-24T10:36:19;15.10;96.40
27633;DHT22;15046;50.930;13.334;2023-04-24T10:38:47;15.20;96.10
27633;DHT22;15046;50.930;13.334;2023-04-24T10:41:18;15.20;95.60
27633;DHT22;15046;50.930;13.334;2023-04-24T10:44:10;15.10;95.10
27633;DHT22;15046;50.930;13.334;2023-04-24T10:46:39;15.10;95.20
27633;DHT22;15046;50.930;13.334;2023-04-24T10:49:06;15.40;94.80
27633;DHT22;15046;50.930;13.334;2023-04-24T10:52:03;16.30;94.60
27633;DHT22;15046;50.930;13.334;2023-04-24T10:54:44;17.30;93.50
27633;DHT22;15046;50.930;13.334;2023-04-24T10:59:46;18.70;91.80
27633;DHT22;15046;50.930;13.334;2023-04-24T11:02:16;19.70;89.20
27633;DHT22;15046;50.930;13.334;2023-04-24T11:04:42;19.20;85.10
27633;DHT22;15046;50.930;13.334;2023-04-24T11:07:09;18.60;85.20
27633;DHT22;15046;50.930;13.334;2023-04-24T11:09:35;18.20;84.10
27633;DHT22;15046;50.930;13.334;2023-04-24T11:12:06;18.30;84.80
27633;DHT22;15046;50.930;13.334;2023-04-24T11:17:34;20.10;81.40
27633;DHT22;15046;50.930;13.334;2023-04-24T11:20:07;20.40;79.70
27633;DHT22;15046;50.930;13.334;2023-04-24T11:22:35;21.70;78.30
27633;DHT22;15046;50.930;13.334;2023-04-24T11:25:05;22.40;74.30
27633;DHT22;15046;50.930;13.334;2023-04-24T11:27:40;21.30;73.70
27633;DHT22;15046;50.930;13.334;2023-04-24T11:30:06;20.20;75.60
27633;DHT22;15046;50.930;13.334;2023-04-24T11:32:37;19.20;76.20
27633;DHT22;15046;50.930;13.334;2023-04-24T11:37:37;17.60;76.60
27633;DHT22;15046;50.930;13.334;2023-04-24T11:40:05;17.20;77.20
27633;DHT22;15046;50.930;13.334;2023-04-24T11:42:42;17.10;77.70
27633;DHT22;15046;50.930;13.334;2023-04-24T11:45:15;17.20;77.30
27633;DHT22;15046;50.930;13.334;2023-04-24T11:47:42;17.70;77.20
27633;DHT22;15046;50.930;13.334;2023-04-24T11:50:13;18.50;75.40
27633;DHT22;15046;50.930;13.334;2023-04-24T11:52:42;18.40;74.20
27633;DHT22;15046;50.930;13.334;2023-04-24T11:57:43;18.20;74.40
27633;DHT22;15046;50.930;13.334;2023-04-24T12:00:16;18.60;74.40
27633;DHT22;15046;50.930;13.334;2023-04-24T12:02:42;18.70;73.30
27633;DHT22;15046;50.930;13.334;2023-04-24T12:05:08;18.40;73.20
27633;DHT22;15046;50.930;13.334;2023-04-24T12:07:43;18.00;74.10
27633;DHT22;15046;50.930;13.334;2023-04-24T12:10:09;17.60;74.20
27633;DHT22;15046;50.930;13.334;2023-04-24T12:12:35;17.30;75.30
27633;DHT22;15046;50.930;13.334;2023-04-24T12:15:01;17.10;75.20
27633;DHT22;15046;50.930;13.334;2023-04-24T12:17:33;17.40;75.40
27633;DHT22;15046;50.930;13.334;2023-04-24T12:20:07;18.70;74.10
27633;DHT22;15046;50.930;13.334;2023-04-24T12:22:58;20.20;70.60
27633;DHT22;15046;50.930;13.334;2023-04-24T12:25:26;21.00;67.10
27633;DHT22;15046;50.930;13.334;2023-04-24T12:28:09;20.80;66.90
27633;DHT22;15046;50.930;13.334;2023-04-24T12:30:47;21.60;65.50
27633;DHT22;15046;50.930;13.334;2023-04-24T12:33:21;22.80;63.60
27633;DHT22;15046;50.930;13.334;2023-04-24T12:35:48;23.40;61.60
27633;DHT22;15046;50.930;13.334;2023-04-24T12:38:16;23.30;60.10
27633;DHT22;15046;50.930;13.334;2023-04-24T12:40:43;23.70;58.90
27633;DHT22;15046;50.930;13.334;2023-04-24T12:43:17;23.80;57.00
27633;DHT22;15046;50.930;13.334;2023-04-24T12:45:43;24.10;56.30
27633;DHT22;15046;50.930;13.334;2023-04-24T12:48:10;24.00;55.60
27633;DHT22;15046;50.930;13.334;2023-04-24T12:50:37;23.50;55.60
27633;DHT22;15046;50.930;13.334;2023-04-24T12:53:03;23.10;54.80
27633;DHT22;15046;50.930;13.334;2023-04-24T12:55:29;23.30;55.50
27633;DHT22;15046;50.930;13.334;2023-04-24T12:57:55;23.10;54.70
27633;DHT22;15046;50.930;13.334;2023-04-24T13:00:21;22.20;55.50
27633;DHT22;15046;50.930;13.334;2023-04-24T13:02:47;21.70;56.00
27633;DHT22;15046;50.930;13.334;2023-04-24T13:05:13;20.90;56.40
27633;DHT22;15046;50.930;13.334;2023-04-24T13:07:39;20.00;57.20
27633;DHT22;15046;50.930;13.334;2023-04-24T13:10:06;19.10;57.60
27633;DHT22;15046;50.930;13.334;2023-04-24T13:12:32;18.30;58.90
27633;DHT22;15046;50.930;13.334;2023-04-24T13:14:58;17.90;59.80
27633;DHT22;15046;50.930;13.334;2023-04-24T13:17:24;17.80;60.20
27633;DHT22;15046;50.930;13.334;2023-04-24T13:19:51;18.00;60.30
27633;DHT22;15046;50.930;13.334;2023-04-24T13:22:17;18.40;60.50
27633;DHT22;15046;50.930;13.334;2023-04-24T13:24:46;19.30;59.40
27633;DHT22;15046;50.930;13.334;2023-04-24T13:27:14;19.40;58.80
27633;DHT22;15046;50.930;13.334;2023-04-24T13:29:40;18.90;58.80
27633;DHT22;15046;50.930;13.334;2023-04-24T13:32:07;18.80;59.90
27633;DHT22;15046;50.930;13.334;2023-04-24T13:34:32;18.90;59.80
27633;DHT22;15046;50.930;13.334;2023-04-24T13:37:00;18.70;60.00
27633;DHT22;15046;50.930;13.334;2023-04-24T13:39:26;18.50;60.30
27633;DHT22;15046;50.930;13.334;2023-04-24T13:41:55;18.40;60.90
27633;DHT22;15046;50.930;13.334;2023-04-24T13:44:21;19.70;61.10
27633;DHT22;15046;50.930;13.334;2023-04-24T13:46:50;20.40;58.70
27633;DHT22;15046;50.930;13.334;2023-04-24T13:49:17;20.00;58.10
27633;DHT22;15046;50.930;13.334;2023-04-24T13:51:44;19.50;58.90
27633;DHT22;15046;50.930;13.334;2023-04-24T13:54:11;19.00;59.10
27633;DHT22;15046;50.930;13.334;2023-04-24T13:56:37;18.80;59.60
27633;DHT22;15046;50.930;13.334;2023-04-24T13:59:03;19.00;59.20
27633;DHT22;15046;50.930;13.334;2023-04-24T14:01:30;19.60;58.90
27633;DHT22;15046;50.930;13.334;2023-04-24T14:03:56;20.20;58.00
27633;DHT22;15046;50.930;13.334;2023-04-24T14:06:22;20.60;57.20
27633;DHT22;15046;50.930;13.334;2023-04-24T14:08:49;21.40;56.90
27633;DHT22;15046;50.930;13.334;2023-04-24T14:11:16;22.10;55.80
27633;DHT22;15046;50.930;13.334;2023-04-24T14:13:42;21.80;54.80
27633;DHT22;15046;50.930;13.334;2023-04-24T14:16:09;20.70;54.90
27633;DHT22;15046;50.930;13.334;2023-04-24T14:18:35;19.90;56.20
27633;DHT22;15046;50.930;13.334;2023-04-24T14:21:04;19.60;57.40
27633;DHT22;15046;50.930;13.334;2023-04-24T14:23:30;19.90;57.40
27633;DHT22;15046;50.930;13.334;2023-04-24T14:25:59;19.80;57.10
27633;DHT22;15046;50.930;13.334;2023-04-24T14:28:26;20.20;57.30
27633;DHT22;15046;50.930;13.334;2023-04-24T14:30:54;20.70;56.50
27633;DHT22;15046;50.930;13.334;2023-04-24T14:33:20;20.80;55.90
27633;DHT22;15046;50.930;13.334;2023-04-24T14:35:46;20.30;56.10
27633;DHT22;15046;50.930;13.334;2023-04-24T14:38:11;20.10;56.20
27633;DHT22;15046;50.930;13.334;2023-04-24T14:40:37;19.70;56.60
27633;DHT22;15046;50.930;13.334;2023-04-24T14:43:03;19.70;57.30
27633;DHT22;15046;50.930;13.334;2023-04-24T14:45:29;19.60;56.50
27633;DHT22;15046;50.930;13.334;2023-04-24T14:47:56;19.50;56.30
27633;DHT22;15046;50.930;13.334;2023-04-24T14:50:22;19.30;56.80
27633;DHT22;15046;50.930;13.334;2023-04-24T14:52:47;19.10;56.60
27633;DHT22;15046;50.930;13.334;2023-04-24T14:55:13;19.00;56.90
27633;DHT22;15046;50.930;13.334;2023-04-24T14:57:40;18.70;57.10
27633;DHT22;15046;50.930;13.334;2023-04-24T15:00:07;18.40;57.60
27633;DHT22;15046;50.930;13.334;2023-04-24T15:02:34;18.20;58.20
27633;DHT22;15046;50.930;13.334;2023-04-24T15:05:02;18.10;58.80
27633;DHT22;15046;50.930;13.334;2023-04-24T15:07:28;17.90;59.00
27633;DHT22;15046;50.930;13.334;2023-04-24T15:09:54;17.70;59.30
27633;DHT22;15046;50.930;13.334;2023-04-24T15:12:21;17.40;59.60
27633;DHT22;15046;50.930;13.334;2023-04-24T15:14:47;17.20;60.00
27633;DHT22;15046;50.930;13.334;2023-04-24T15:17:12;17.00;60.40
27633;DHT22;15046;50.930;13.334;2023-04-24T15:19:38;16.80;61.20
27633;DHT22;15046;50.930;13.334;2023-04-24T15:22:04;16.60;61.80
27633;DHT22;15046;50.930;13.334;2023-04-24T15:24:30;16.50;62.60
27633;DHT22;15046;50.930;13.334;2023-04-24T15:26:56;16.50;63.00